Aérodrome :
LOGIN :

S'inscrire | Disclaimer

   EN    FR    IT 

 










Légende :    VFR   VFR Marginal   IFR   IFR Intensif   IFR Très Intensif
Visi : 
Plafond : 
>= 8 km
>= 3000ft
5 à 8 km
1000 à 3000 ft
1500m à 5 km
500 à 1000 ft
800 à 1500m
200 à 500 ft
< 800m
< 200 ft
Symboles :   Orages  Brouillard  Fortes neiges  Fortes précipitations  Vent > 20 kt
SIGMETs :   Divers  Orages  Givrage  Turbulence  Onde Orograph.  Cendres Volcan.







- Altitude de l'aérodrome : 194 ft
- Code IATA : IEG


EPZG - Zielona Gora Babimost

DERNIER METAR :
  • 240630Z 25010KT 220V280 9999 BKN014 14/11 Q1017

METARs EXPIRÉS :
  • 240600Z 25010KT 9999 FEW014 SCT028 14/11 Q1016
  • 240530Z 25008KT 220V280 9999 SCT028 13/11 Q1016
  • 240500Z 26008KT 230V290 9999 SCT028 13/11 Q1017
  • 240430Z 25007KT 9999 FEW012 SCT024 13/11 Q1017
  • 240400Z 24007KT 9999 SCT027 13/11 Q1017

TAF TAF EPZG
Valide du 24 à 06h jusqu'au 24 à 15h UTC


240530Z 2406/2415 25010KT 9999 BKN025
TEMPO 2406/2415 SHRA BKN022CB
PROB40 2406/2409 BKN009
PROB40
TEMPO 2409/2415 25015G25KT
Pas de NOTAMs connus pour ce terrain.



MET'MAP, la Météo Aéronautique d'un coup d'oeil ! - Copyright ORBIFLY Décembre 2007 - Disclaimer

ORBIFLY MET'MAP TEAM :

Programmation & Développement : Alexandra Zaïnal
Conception & Développement : Baudouin d'Aumeries
Co-Programmation & Développement : Marc-Olivier Méhu
Soutien technique & logistique : Manuel Goepfert

Contact : metmap@orbifly.com




SOURCES & CREDITS :

   NOAA